sensor_id;sensor_type;location;lat;lon;timestamp;temperature;humidity
25640;DHT22;13497;48.322;16.204;2024-02-26T00:02:23;7.20;99.90
25640;DHT22;13497;48.322;16.204;2024-02-26T00:04:48;7.20;99.90
25640;DHT22;13497;48.322;16.204;2024-02-26T00:07:15;7.20;99.90
25640;DHT22;13497;48.322;16.204;2024-02-26T00:09:41;7.30;99.90
25640;DHT22;13497;48.322;16.204;2024-02-26T00:12:07;7.30;99.90
25640;DHT22;13497;48.322;16.204;2024-02-26T00:14:33;7.30;99.90
25640;DHT22;13497;48.322;16.204;2024-02-26T00:16:59;7.20;99.90
25640;DHT22;13497;48.322;16.204;2024-02-26T00:19:25;7.20;99.90
25640;DHT22;13497;48.322;16.204;2024-02-26T00:21:50;7.10;99.90
25640;DHT22;13497;48.322;16.204;2024-02-26T00:24:16;7.10;99.90
25640;DHT22;13497;48.322;16.204;2024-02-26T00:26:42;7.10;99.90
25640;DHT22;13497;48.322;16.204;2024-02-26T00:29:07;7.10;99.90
25640;DHT22;13497;48.322;16.204;2024-02-26T00:31:33;7.00;99.90
25640;DHT22;13497;48.322;16.204;2024-02-26T00:33:59;7.00;99.90
25640;DHT22;13497;48.322;16.204;2024-02-26T00:36:24;7.00;99.90
25640;DHT22;13497;48.322;16.204;2024-02-26T00:38:50;6.90;99.90
25640;DHT22;13497;48.322;16.204;2024-02-26T00:41:22;6.90;99.90
25640;DHT22;13497;48.322;16.204;2024-02-26T00:43:48;6.80;99.90
25640;DHT22;13497;48.322;16.204;2024-02-26T00:46:14;6.80;99.90
25640;DHT22;13497;48.322;16.204;2024-02-26T00:48:40;6.90;99.90
25640;DHT22;13497;48.322;16.204;2024-02-26T00:51:05;6.90;99.90
25640;DHT22;13497;48.322;16.204;2024-02-26T00:53:31;7.00;99.90
25640;DHT22;13497;48.322;16.204;2024-02-26T00:55:57;7.00;99.90
25640;DHT22;13497;48.322;16.204;2024-02-26T00:58:27;7.00;99.90
25640;DHT22;13497;48.322;16.204;2024-02-26T01:00:52;6.90;99.90
25640;DHT22;13497;48.322;16.204;2024-02-26T01:03:18;6.90;99.90
25640;DHT22;13497;48.322;16.204;2024-02-26T01:05:44;6.80;99.90
25640;DHT22;13497;48.322;16.204;2024-02-26T01:08:10;6.80;99.90
25640;DHT22;13497;48.322;16.204;2024-02-26T01:10:36;6.70;99.90
25640;DHT22;13497;48.322;16.204;2024-02-26T01:13:02;6.70;99.90
25640;DHT22;13497;48.322;16.204;2024-02-26T01:15:27;6.80;99.90
25640;DHT22;13497;48.322;16.204;2024-02-26T01:17:53;6.70;99.90
25640;DHT22;13497;48.322;16.204;2024-02-26T01:20:19;6.60;99.90
25640;DHT22;13497;48.322;16.204;2024-02-26T01:22:45;6.60;99.90
25640;DHT22;13497;48.322;16.204;2024-02-26T01:25:10;6.60;99.90
25640;DHT22;13497;48.322;16.204;2024-02-26T01:27:36;6.60;99.90
25640;DHT22;13497;48.322;16.204;2024-02-26T01:30:06;6.50;99.90
25640;DHT22;13497;48.322;16.204;2024-02-26T01:32:32;6.40;99.90
25640;DHT22;13497;48.322;16.204;2024-02-26T01:34:57;6.40;99.90
25640;DHT22;13497;48.322;16.204;2024-02-26T01:37:23;6.40;99.90
25640;DHT22;13497;48.322;16.204;2024-02-26T01:39:49;6.40;99.90
25640;DHT22;13497;48.322;16.204;2024-02-26T01:42:15;6.30;99.90
25640;DHT22;13497;48.322;16.204;2024-02-26T01:44:40;6.30;99.90
25640;DHT22;13497;48.322;16.204;2024-02-26T01:47:08;6.20;99.90
25640;DHT22;13497;48.322;16.204;2024-02-26T01:49:35;6.10;99.90
25640;DHT22;13497;48.322;16.204;2024-02-26T01:52:03;6.00;99.90
25640;DHT22;13497;48.322;16.204;2024-02-26T01:54:30;6.00;99.90
25640;DHT22;13497;48.322;16.204;2024-02-26T01:56:57;5.90;99.90
25640;DHT22;13497;48.322;16.204;2024-02-26T01:59:23;5.90;99.90
25640;DHT22;13497;48.322;16.204;2024-02-26T02:01:54;5.80;99.90
25640;DHT22;13497;48.322;16.204;2024-02-26T02:04:22;5.70;99.90
25640;DHT22;13497;48.322;16.204;2024-02-26T02:06:48;5.70;99.90
25640;DHT22;13497;48.322;16.204;2024-02-26T02:09:15;5.70;99.90
25640;DHT22;13497;48.322;16.204;2024-02-26T02:11:41;5.70;99.90
25640;DHT22;13497;48.322;16.204;2024-02-26T02:14:07;5.70;99.90
25640;DHT22;13497;48.322;16.204;2024-02-26T02:16:33;5.70;99.90
25640;DHT22;13497;48.322;16.204;2024-02-26T02:18:59;5.70;99.90
25640;DHT22;13497;48.322;16.204;2024-02-26T02:21:25;5.60;99.90
25640;DHT22;13497;48.322;16.204;2024-02-26T02:23:50;5.60;99.90
25640;DHT22;13497;48.322;16.204;2024-02-26T02:26:16;5.70;99.90
25640;DHT22;13497;48.322;16.204;2024-02-26T02:28:42;5.70;99.90
25640;DHT22;13497;48.322;16.204;2024-02-26T02:31:09;5.70;99.90
25640;DHT22;13497;48.322;16.204;2024-02-26T02:33:35;5.70;99.90
25640;DHT22;13497;48.322;16.204;2024-02-26T02:36:01;5.60;99.90
25640;DHT22;13497;48.322;16.204;2024-02-26T02:38:26;5.60;99.90
25640;DHT22;13497;48.322;16.204;2024-02-26T02:40:55;5.50;99.90
25640;DHT22;13497;48.322;16.204;2024-02-26T02:43:20;5.50;99.90
25640;DHT22;13497;48.322;16.204;2024-02-26T02:45:46;5.60;99.90
25640;DHT22;13497;48.322;16.204;2024-02-26T02:48:12;5.60;99.90
25640;DHT22;13497;48.322;16.204;2024-02-26T02:50:38;5.70;99.90
25640;DHT22;13497;48.322;16.204;2024-02-26T02:53:03;5.70;99.90
25640;DHT22;13497;48.322;16.204;2024-02-26T02:55:29;5.10;99.90
25640;DHT22;13497;48.322;16.204;2024-02-26T02:57:55;4.40;99.90
25640;DHT22;13497;48.322;16.204;2024-02-26T03:00:20;3.90;99.90
25640;DHT22;13497;48.322;16.204;2024-02-26T03:02:49;3.70;99.90
25640;DHT22;13497;48.322;16.204;2024-02-26T03:05:15;3.60;99.90
25640;DHT22;13497;48.322;16.204;2024-02-26T03:07:40;3.90;99.90
25640;DHT22;13497;48.322;16.204;2024-02-26T03:10:06;4.10;99.90
25640;DHT22;13497;48.322;16.204;2024-02-26T03:12:33;4.30;99.90
25640;DHT22;13497;48.322;16.204;2024-02-26T03:14:59;4.60;99.90
25640;DHT22;13497;48.322;16.204;2024-02-26T03:17:31;4.90;99.90
25640;DHT22;13497;48.322;16.204;2024-02-26T03:19:56;5.10;99.90
25640;DHT22;13497;48.322;16.204;2024-02-26T03:22:22;5.30;99.90
25640;DHT22;13497;48.322;16.204;2024-02-26T03:24:48;5.40;99.90
25640;DHT22;13497;48.322;16.204;2024-02-26T03:27:14;5.70;99.90
25640;DHT22;13497;48.322;16.204;2024-02-26T03:29:40;5.70;99.90
25640;DHT22;13497;48.322;16.204;2024-02-26T03:32:06;5.80;99.90
25640;DHT22;13497;48.322;16.204;2024-02-26T03:34:32;5.80;99.90
25640;DHT22;13497;48.322;16.204;2024-02-26T03:37:00;5.80;99.90
25640;DHT22;13497;48.322;16.204;2024-02-26T03:39:26;5.90;99.90
25640;DHT22;13497;48.322;16.204;2024-02-26T03:41:51;5.90;99.90
25640;DHT22;13497;48.322;16.204;2024-02-26T03:44:17;5.90;99.90
25640;DHT22;13497;48.322;16.204;2024-02-26T03:46:44;5.90;99.90
25640;DHT22;13497;48.322;16.204;2024-02-26T03:49:09;6.00;99.90
25640;DHT22;13497;48.322;16.204;2024-02-26T03:51:35;5.30;99.90
25640;DHT22;13497;48.322;16.204;2024-02-26T03:54:01;4.70;99.90
25640;DHT22;13497;48.322;16.204;2024-02-26T03:56:27;4.10;99.90
25640;DHT22;13497;48.322;16.204;2024-02-26T03:58:53;3.60;99.90
25640;DHT22;13497;48.322;16.204;2024-02-26T04:01:19;3.00;99.90
25640;DHT22;13497;48.322;16.204;2024-02-26T04:03:44;2.50;99.90
25640;DHT22;13497;48.322;16.204;2024-02-26T04:06:11;2.20;99.90
25640;DHT22;13497;48.322;16.204;2024-02-26T04:08:39;2.10;99.90
25640;DHT22;13497;48.322;16.204;2024-02-26T04:11:05;2.10;99.90
25640;DHT22;13497;48.322;16.204;2024-02-26T04:13:33;1.90;99.90
25640;DHT22;13497;48.322;16.204;2024-02-26T04:15:59;1.80;99.90
25640;DHT22;13497;48.322;16.204;2024-02-26T04:18:27;1.70;99.90
25640;DHT22;13497;48.322;16.204;2024-02-26T04:20:53;1.50;99.90
25640;DHT22;13497;48.322;16.204;2024-02-26T04:23:19;1.50;99.90
25640;DHT22;13497;48.322;16.204;2024-02-26T04:25:45;1.50;99.90
25640;DHT22;13497;48.322;16.204;2024-02-26T04:28:11;1.50;99.90
25640;DHT22;13497;48.322;16.204;2024-02-26T04:30:36;1.60;99.90
25640;DHT22;13497;48.322;16.204;2024-02-26T04:33:03;1.50;99.90
25640;DHT22;13497;48.322;16.204;2024-02-26T04:35:28;1.40;99.90
25640;DHT22;13497;48.322;16.204;2024-02-26T04:37:54;1.10;99.90
25640;DHT22;13497;48.322;16.204;2024-02-26T04:40:20;1.00;99.90
25640;DHT22;13497;48.322;16.204;2024-02-26T04:42:45;0.90;99.90
25640;DHT22;13497;48.322;16.204;2024-02-26T04:45:11;0.90;99.90
25640;DHT22;13497;48.322;16.204;2024-02-26T04:47:37;0.90;99.90
25640;DHT22;13497;48.322;16.204;2024-02-26T04:50:03;0.80;99.90
25640;DHT22;13497;48.322;16.204;2024-02-26T04:52:28;0.80;99.90
25640;DHT22;13497;48.322;16.204;2024-02-26T04:54:54;0.90;99.90
25640;DHT22;13497;48.322;16.204;2024-02-26T04:57:21;0.80;99.90
25640;DHT22;13497;48.322;16.204;2024-02-26T04:59:47;0.80;99.90
25640;DHT22;13497;48.322;16.204;2024-02-26T05:02:13;0.70;99.90
25640;DHT22;13497;48.322;16.204;2024-02-26T05:04:38;0.70;99.90
25640;DHT22;13497;48.322;16.204;2024-02-26T05:07:04;0.60;99.90
25640;DHT22;13497;48.322;16.204;2024-02-26T05:09:31;0.60;99.90
25640;DHT22;13497;48.322;16.204;2024-02-26T05:11:57;0.60;99.90
25640;DHT22;13497;48.322;16.204;2024-02-26T05:14:22;0.60;99.90
25640;DHT22;13497;48.322;16.204;2024-02-26T05:16:48;0.50;99.90
25640;DHT22;13497;48.322;16.204;2024-02-26T05:19:14;0.50;99.90
25640;DHT22;13497;48.322;16.204;2024-02-26T05:21:39;0.50;99.90
25640;DHT22;13497;48.322;16.204;2024-02-26T05:24:06;0.50;99.90
25640;DHT22;13497;48.322;16.204;2024-02-26T05:26:32;0.50;99.90
25640;DHT22;13497;48.322;16.204;2024-02-26T05:28:57;0.50;99.90
25640;DHT22;13497;48.322;16.204;2024-02-26T05:31:26;0.50;99.90
25640;DHT22;13497;48.322;16.204;2024-02-26T05:33:52;0.40;99.90
25640;DHT22;13497;48.322;16.204;2024-02-26T05:36:21;0.30;99.90
25640;DHT22;13497;48.322;16.204;2024-02-26T05:38:48;0.30;99.90
25640;DHT22;13497;48.322;16.204;2024-02-26T05:41:17;0.30;99.90
25640;DHT22;13497;48.322;16.204;2024-02-26T05:43:54;0.30;99.90
25640;DHT22;13497;48.322;16.204;2024-02-26T05:46:21;0.30;99.90
25640;DHT22;13497;48.322;16.204;2024-02-26T05:48:48;0.40;99.90
25640;DHT22;13497;48.322;16.204;2024-02-26T05:51:14;0.40;99.90
25640;DHT22;13497;48.322;16.204;2024-02-26T05:53:40;0.40;99.90
25640;DHT22;13497;48.322;16.204;2024-02-26T05:56:06;0.50;99.90
25640;DHT22;13497;48.322;16.204;2024-02-26T05:58:32;0.50;99.90
25640;DHT22;13497;48.322;16.204;2024-02-26T06:00:58;0.60;99.90
25640;DHT22;13497;48.322;16.204;2024-02-26T06:03:23;0.60;99.90
25640;DHT22;13497;48.322;16.204;2024-02-26T06:05:49;0.50;99.90
25640;DHT22;13497;48.322;16.204;2024-02-26T06:08:14;0.60;99.90
25640;DHT22;13497;48.322;16.204;2024-02-26T06:10:40;0.60;99.90
25640;DHT22;13497;48.322;16.204;2024-02-26T06:13:06;0.60;99.90
25640;DHT22;13497;48.322;16.204;2024-02-26T06:15:32;0.70;99.90
25640;DHT22;13497;48.322;16.204;2024-02-26T06:17:57;0.70;99.90
25640;DHT22;13497;48.322;16.204;2024-02-26T06:20:23;0.70;99.90
25640;DHT22;13497;48.322;16.204;2024-02-26T06:22:49;0.70;99.90
25640;DHT22;13497;48.322;16.204;2024-02-26T06:25:14;0.70;99.90
25640;DHT22;13497;48.322;16.204;2024-02-26T06:27:40;0.90;99.90
25640;DHT22;13497;48.322;16.204;2024-02-26T06:30:06;0.90;99.90
25640;DHT22;13497;48.322;16.204;2024-02-26T06:32:32;0.90;99.90
25640;DHT22;13497;48.322;16.204;2024-02-26T06:34:58;1.00;99.90
25640;DHT22;13497;48.322;16.204;2024-02-26T06:37:23;1.10;99.90
25640;DHT22;13497;48.322;16.204;2024-02-26T06:39:50;1.00;99.90
25640;DHT22;13497;48.322;16.204;2024-02-26T06:42:17;1.10;99.90
25640;DHT22;13497;48.322;16.204;2024-02-26T06:44:43;1.30;99.90
25640;DHT22;13497;48.322;16.204;2024-02-26T06:47:08;1.40;99.90
25640;DHT22;13497;48.322;16.204;2024-02-26T06:49:34;1.60;99.90
25640;DHT22;13497;48.322;16.204;2024-02-26T06:52:00;1.60;99.90
25640;DHT22;13497;48.322;16.204;2024-02-26T06:54:25;1.80;99.90
25640;DHT22;13497;48.322;16.204;2024-02-26T06:56:51;1.80;99.90
25640;DHT22;13497;48.322;16.204;2024-02-26T06:59:17;1.90;99.90
25640;DHT22;13497;48.322;16.204;2024-02-26T07:01:43;2.00;99.90
25640;DHT22;13497;48.322;16.204;2024-02-26T07:04:09;2.10;99.90
25640;DHT22;13497;48.322;16.204;2024-02-26T07:06:36;2.30;99.90
25640;DHT22;13497;48.322;16.204;2024-02-26T07:09:02;2.40;99.90
25640;DHT22;13497;48.322;16.204;2024-02-26T07:11:28;2.40;99.90
25640;DHT22;13497;48.322;16.204;2024-02-26T07:13:54;2.50;99.90
25640;DHT22;13497;48.322;16.204;2024-02-26T07:16:19;2.60;99.90
25640;DHT22;13497;48.322;16.204;2024-02-26T07:18:45;2.60;99.90
25640;DHT22;13497;48.322;16.204;2024-02-26T07:21:12;2.60;99.90
25640;DHT22;13497;48.322;16.204;2024-02-26T07:23:37;2.80;99.90
25640;DHT22;13497;48.322;16.204;2024-02-26T07:26:03;2.80;99.90
25640;DHT22;13497;48.322;16.204;2024-02-26T07:28:29;3.00;99.90
25640;DHT22;13497;48.322;16.204;2024-02-26T07:30:55;3.10;99.90
25640;DHT22;13497;48.322;16.204;2024-02-26T07:33:21;3.10;99.90
25640;DHT22;13497;48.322;16.204;2024-02-26T07:35:46;3.30;99.90
25640;DHT22;13497;48.322;16.204;2024-02-26T07:38:12;3.50;99.90
25640;DHT22;13497;48.322;16.204;2024-02-26T07:40:39;3.60;99.90
25640;DHT22;13497;48.322;16.204;2024-02-26T07:43:05;3.70;99.90
25640;DHT22;13497;48.322;16.204;2024-02-26T07:45:30;3.80;99.90
25640;DHT22;13497;48.322;16.204;2024-02-26T07:47:56;3.90;99.90
25640;DHT22;13497;48.322;16.204;2024-02-26T07:50:22;4.10;99.90
25640;DHT22;13497;48.322;16.204;2024-02-26T07:52:47;4.10;99.90
25640;DHT22;13497;48.322;16.204;2024-02-26T07:55:13;4.20;99.90
25640;DHT22;13497;48.322;16.204;2024-02-26T07:57:42;4.20;99.90
25640;DHT22;13497;48.322;16.204;2024-02-26T08:00:09;4.20;99.90
25640;DHT22;13497;48.322;16.204;2024-02-26T08:02:36;4.20;99.90
25640;DHT22;13497;48.322;16.204;2024-02-26T08:05:02;4.20;99.90
25640;DHT22;13497;48.322;16.204;2024-02-26T08:07:28;4.30;99.90
25640;DHT22;13497;48.322;16.204;2024-02-26T08:09:54;4.40;99.90
25640;DHT22;13497;48.322;16.204;2024-02-26T08:12:19;4.50;99.90
25640;DHT22;13497;48.322;16.204;2024-02-26T08:14:45;4.50;99.90
25640;DHT22;13497;48.322;16.204;2024-02-26T08:17:11;4.60;99.90
25640;DHT22;13497;48.322;16.204;2024-02-26T08:19:36;4.60;99.90
25640;DHT22;13497;48.322;16.204;2024-02-26T08:22:03;4.70;99.90
25640;DHT22;13497;48.322;16.204;2024-02-26T08:24:28;4.70;99.90
25640;DHT22;13497;48.322;16.204;2024-02-26T08:26:54;4.80;99.90
25640;DHT22;13497;48.322;16.204;2024-02-26T08:29:20;4.90;99.90
25640;DHT22;13497;48.322;16.204;2024-02-26T08:31:46;5.00;99.90
25640;DHT22;13497;48.322;16.204;2024-02-26T08:34:11;5.00;99.90
25640;DHT22;13497;48.322;16.204;2024-02-26T08:36:37;5.00;99.90
25640;DHT22;13497;48.322;16.204;2024-02-26T08:39:03;5.10;99.90
25640;DHT22;13497;48.322;16.204;2024-02-26T08:41:29;5.10;99.90
25640;DHT22;13497;48.322;16.204;2024-02-26T08:43:55;5.20;99.90
25640;DHT22;13497;48.322;16.204;2024-02-26T08:46:20;5.30;99.90
25640;DHT22;13497;48.322;16.204;2024-02-26T08:48:46;5.40;99.90
25640;DHT22;13497;48.322;16.204;2024-02-26T08:51:12;5.40;99.90
25640;DHT22;13497;48.322;16.204;2024-02-26T08:53:38;5.50;99.90
25640;DHT22;13497;48.322;16.204;2024-02-26T08:56:05;5.60;99.90
25640;DHT22;13497;48.322;16.204;2024-02-26T08:58:30;5.70;99.90
25640;DHT22;13497;48.322;16.204;2024-02-26T09:00:56;5.90;99.90
25640;DHT22;13497;48.322;16.204;2024-02-26T09:03:22;6.00;99.90
25640;DHT22;13497;48.322;16.204;2024-02-26T09:05:48;6.20;99.90
25640;DHT22;13497;48.322;16.204;2024-02-26T09:08:14;6.20;99.90
25640;DHT22;13497;48.322;16.204;2024-02-26T09:10:40;6.40;99.90
25640;DHT22;13497;48.322;16.204;2024-02-26T09:13:06;6.50;99.90
25640;DHT22;13497;48.322;16.204;2024-02-26T09:15:31;6.60;99.90
25640;DHT22;13497;48.322;16.204;2024-02-26T09:17:57;6.90;99.90
25640;DHT22;13497;48.322;16.204;2024-02-26T09:20:23;6.90;99.90
25640;DHT22;13497;48.322;16.204;2024-02-26T09:22:50;7.00;99.90
25640;DHT22;13497;48.322;16.204;2024-02-26T09:25:19;7.10;99.90
25640;DHT22;13497;48.322;16.204;2024-02-26T09:27:45;7.20;99.90
25640;DHT22;13497;48.322;16.204;2024-02-26T09:30:11;7.20;99.90
25640;DHT22;13497;48.322;16.204;2024-02-26T09:32:38;7.40;99.90
25640;DHT22;13497;48.322;16.204;2024-02-26T09:35:07;7.40;99.90
25640;DHT22;13497;48.322;16.204;2024-02-26T09:37:33;7.50;99.90
25640;DHT22;13497;48.322;16.204;2024-02-26T09:39:59;7.60;99.90
25640;DHT22;13497;48.322;16.204;2024-02-26T09:42:26;7.70;99.90
25640;DHT22;13497;48.322;16.204;2024-02-26T09:44:56;7.90;99.90
25640;DHT22;13497;48.322;16.204;2024-02-26T09:47:25;8.10;99.90
25640;DHT22;13497;48.322;16.204;2024-02-26T09:49:53;8.10;99.90
25640;DHT22;13497;48.322;16.204;2024-02-26T09:52:21;8.30;99.90
25640;DHT22;13497;48.322;16.204;2024-02-26T09:54:47;8.40;99.90
25640;DHT22;13497;48.322;16.204;2024-02-26T09:57:14;8.50;99.90
25640;DHT22;13497;48.322;16.204;2024-02-26T09:59:42;8.60;99.90
25640;DHT22;13497;48.322;16.204;2024-02-26T10:02:13;8.70;99.90
25640;DHT22;13497;48.322;16.204;2024-02-26T10:04:42;8.80;99.90
25640;DHT22;13497;48.322;16.204;2024-02-26T10:07:12;8.90;99.90
25640;DHT22;13497;48.322;16.204;2024-02-26T10:09:39;9.00;99.90
25640;DHT22;13497;48.322;16.204;2024-02-26T10:12:05;9.20;99.90
25640;DHT22;13497;48.322;16.204;2024-02-26T10:14:32;9.20;99.90
25640;DHT22;13497;48.322;16.204;2024-02-26T10:16:59;9.20;99.90
25640;DHT22;13497;48.322;16.204;2024-02-26T10:19:30;9.40;99.90
25640;DHT22;13497;48.322;16.204;2024-02-26T10:22:00;9.50;99.90
25640;DHT22;13497;48.322;16.204;2024-02-26T10:24:27;9.60;99.90
25640;DHT22;13497;48.322;16.204;2024-02-26T10:26:54;9.60;99.90
25640;DHT22;13497;48.322;16.204;2024-02-26T10:29:21;9.60;99.90
25640;DHT22;13497;48.322;16.204;2024-02-26T10:31:47;9.60;99.90
25640;DHT22;13497;48.322;16.204;2024-02-26T10:34:15;9.60;99.90
25640;DHT22;13497;48.322;16.204;2024-02-26T10:36:41;9.60;99.90
25640;DHT22;13497;48.322;16.204;2024-02-26T10:39:08;9.70;99.90
25640;DHT22;13497;48.322;16.204;2024-02-26T10:41:34;9.80;99.90
25640;DHT22;13497;48.322;16.204;2024-02-26T10:44:00;9.90;99.90
25640;DHT22;13497;48.322;16.204;2024-02-26T10:46:25;10.00;99.90
25640;DHT22;13497;48.322;16.204;2024-02-26T10:48:52;10.10;99.90
25640;DHT22;13497;48.322;16.204;2024-02-26T10:51:22;10.20;99.90
25640;DHT22;13497;48.322;16.204;2024-02-26T10:53:51;10.20;99.90
25640;DHT22;13497;48.322;16.204;2024-02-26T10:56:25;10.20;99.90
25640;DHT22;13497;48.322;16.204;2024-02-26T10:58:53;10.30;99.90
25640;DHT22;13497;48.322;16.204;2024-02-26T11:01:19;10.30;99.90
25640;DHT22;13497;48.322;16.204;2024-02-26T11:03:48;10.40;99.90
25640;DHT22;13497;48.322;16.204;2024-02-26T11:06:15;10.60;99.90
25640;DHT22;13497;48.322;16.204;2024-02-26T11:08:42;10.80;99.90
25640;DHT22;13497;48.322;16.204;2024-02-26T11:11:08;11.10;99.90
25640;DHT22;13497;48.322;16.204;2024-02-26T11:13:36;11.30;99.90
25640;DHT22;13497;48.322;16.204;2024-02-26T11:16:07;11.40;99.90
25640;DHT22;13497;48.322;16.204;2024-02-26T11:18:34;11.60;99.90
25640;DHT22;13497;48.322;16.204;2024-02-26T11:21:01;11.80;99.90
25640;DHT22;13497;48.322;16.204;2024-02-26T11:23:28;11.90;99.90
25640;DHT22;13497;48.322;16.204;2024-02-26T11:25:56;12.10;99.90
25640;DHT22;13497;48.322;16.204;2024-02-26T11:28:24;12.30;99.90
25640;DHT22;13497;48.322;16.204;2024-02-26T11:30:51;12.40;99.90
25640;DHT22;13497;48.322;16.204;2024-02-26T11:33:19;12.50;99.90
25640;DHT22;13497;48.322;16.204;2024-02-26T11:35:45;12.40;99.80
25640;DHT22;13497;48.322;16.204;2024-02-26T11:38:19;12.70;99.90
25640;DHT22;13497;48.322;16.204;2024-02-26T11:40:46;12.80;99.50
25640;DHT22;13497;48.322;16.204;2024-02-26T11:43:12;12.90;98.90
25640;DHT22;13497;48.322;16.204;2024-02-26T11:48:20;12.70;99.40
25640;DHT22;13497;48.322;16.204;2024-02-26T11:50:49;12.70;99.50
25640;DHT22;13497;48.322;16.204;2024-02-26T11:53:27;12.80;99.40
25640;DHT22;13497;48.322;16.204;2024-02-26T11:58:41;13.00;98.60
25640;DHT22;13497;48.322;16.204;2024-02-26T12:04:21;13.20;98.40
25640;DHT22;13497;48.322;16.204;2024-02-26T12:06:51;13.20;97.80
25640;DHT22;13497;48.322;16.204;2024-02-26T12:12:03;13.20;97.50
25640;DHT22;13497;48.322;16.204;2024-02-26T12:14:29;13.30;97.20
25640;DHT22;13497;48.322;16.204;2024-02-26T12:16:55;13.20;96.90
25640;DHT22;13497;48.322;16.204;2024-02-26T12:19:22;13.30;97.40
25640;DHT22;13497;48.322;16.204;2024-02-26T12:21:52;13.50;96.10
25640;DHT22;13497;48.322;16.204;2024-02-26T12:24:21;13.70;95.30
25640;DHT22;13497;48.322;16.204;2024-02-26T12:26:47;14.00;95.00
25640;DHT22;13497;48.322;16.204;2024-02-26T12:29:12;14.10;93.80
25640;DHT22;13497;48.322;16.204;2024-02-26T12:31:40;13.80;93.90
25640;DHT22;13497;48.322;16.204;2024-02-26T12:34:07;13.80;93.80
25640;DHT22;13497;48.322;16.204;2024-02-26T12:36:36;13.90;93.90
25640;DHT22;13497;48.322;16.204;2024-02-26T12:39:04;13.90;93.30
25640;DHT22;13497;48.322;16.204;2024-02-26T12:41:34;14.10;93.40
25640;DHT22;13497;48.322;16.204;2024-02-26T12:44:00;14.10;93.20
25640;DHT22;13497;48.322;16.204;2024-02-26T12:46:26;13.90;93.00
25640;DHT22;13497;48.322;16.204;2024-02-26T12:48:54;14.00;92.90
25640;DHT22;13497;48.322;16.204;2024-02-26T12:51:22;13.90;92.80
25640;DHT22;13497;48.322;16.204;2024-02-26T12:53:48;14.00;93.20
25640;DHT22;13497;48.322;16.204;2024-02-26T12:56:15;14.20;92.70
25640;DHT22;13497;48.322;16.204;2024-02-26T12:58:41;14.30;92.90
25640;DHT22;13497;48.322;16.204;2024-02-26T13:01:14;14.40;92.60
25640;DHT22;13497;48.322;16.204;2024-02-26T13:03:40;14.40;92.20
25640;DHT22;13497;48.322;16.204;2024-02-26T13:06:07;14.40;92.10
25640;DHT22;13497;48.322;16.204;2024-02-26T13:08:33;14.40;92.20
25640;DHT22;13497;48.322;16.204;2024-02-26T13:11:01;14.50;92.20
25640;DHT22;13497;48.322;16.204;2024-02-26T13:13:28;14.40;91.80
25640;DHT22;13497;48.322;16.204;2024-02-26T13:16:04;14.30;92.00
25640;DHT22;13497;48.322;16.204;2024-02-26T13:18:30;14.30;92.60
25640;DHT22;13497;48.322;16.204;2024-02-26T13:21:14;14.40;92.20
25640;DHT22;13497;48.322;16.204;2024-02-26T13:23:41;14.20;92.10
25640;DHT22;13497;48.322;16.204;2024-02-26T13:26:08;14.20;92.50
25640;DHT22;13497;48.322;16.204;2024-02-26T13:28:37;14.20;92.60
25640;DHT22;13497;48.322;16.204;2024-02-26T13:31:03;14.10;92.30
25640;DHT22;13497;48.322;16.204;2024-02-26T13:33:31;13.90;92.50
25640;DHT22;13497;48.322;16.204;2024-02-26T13:35:57;13.80;92.70
25640;DHT22;13497;48.322;16.204;2024-02-26T13:38:23;13.70;93.10
25640;DHT22;13497;48.322;16.204;2024-02-26T13:40:50;13.90;93.20
25640;DHT22;13497;48.322;16.204;2024-02-26T13:43:16;13.80;92.80
25640;DHT22;13497;48.322;16.204;2024-02-26T13:45:42;13.70;92.80
25640;DHT22;13497;48.322;16.204;2024-02-26T13:48:09;13.60;92.90
25640;DHT22;13497;48.322;16.204;2024-02-26T13:50:37;13.40;93.20
25640;DHT22;13497;48.322;16.204;2024-02-26T13:53:03;13.50;93.30
25640;DHT22;13497;48.322;16.204;2024-02-26T13:55:30;13.50;93.20
25640;DHT22;13497;48.322;16.204;2024-02-26T13:57:57;13.60;93.10
25640;DHT22;13497;48.322;16.204;2024-02-26T14:00:24;13.60;93.40
25640;DHT22;13497;48.322;16.204;2024-02-26T14:02:52;13.70;93.00
25640;DHT22;13497;48.322;16.204;2024-02-26T14:05:18;13.70;93.00
25640;DHT22;13497;48.322;16.204;2024-02-26T14:07:44;13.70;92.70
25640;DHT22;13497;48.322;16.204;2024-02-26T14:10:13;13.50;92.90
25640;DHT22;13497;48.322;16.204;2024-02-26T14:12:39;13.40;93.10
25640;DHT22;13497;48.322;16.204;2024-02-26T14:15:07;13.50;92.80
25640;DHT22;13497;48.322;16.204;2024-02-26T14:17:33;13.50;92.90
25640;DHT22;13497;48.322;16.204;2024-02-26T14:19:59;13.50;92.80
25640;DHT22;13497;48.322;16.204;2024-02-26T14:22:25;13.50;93.00
25640;DHT22;13497;48.322;16.204;2024-02-26T14:24:53;13.60;92.60
25640;DHT22;13497;48.322;16.204;2024-02-26T14:27:19;13.50;92.70
25640;DHT22;13497;48.322;16.204;2024-02-26T14:29:48;13.50;92.70
25640;DHT22;13497;48.322;16.204;2024-02-26T14:32:14;13.60;92.90
25640;DHT22;13497;48.322;16.204;2024-02-26T14:34:40;13.60;92.60
25640;DHT22;13497;48.322;16.204;2024-02-26T14:37:05;13.50;92.70
25640;DHT22;13497;48.322;16.204;2024-02-26T14:39:32;13.50;92.80
25640;DHT22;13497;48.322;16.204;2024-02-26T14:41:58;13.40;93.00
25640;DHT22;13497;48.322;16.204;2024-02-26T14:44:24;13.40;92.70
25640;DHT22;13497;48.322;16.204;2024-02-26T14:46:50;13.30;92.80
25640;DHT22;13497;48.322;16.204;2024-02-26T14:49:16;13.20;93.00
25640;DHT22;13497;48.322;16.204;2024-02-26T14:51:43;13.10;93.20
25640;DHT22;13497;48.322;16.204;2024-02-26T14:54:11;13.10;93.20
25640;DHT22;13497;48.322;16.204;2024-02-26T14:56:37;13.10;93.30
25640;DHT22;13497;48.322;16.204;2024-02-26T14:59:03;13.00;93.20
25640;DHT22;13497;48.322;16.204;2024-02-26T15:01:29;13.00;93.50
25640;DHT22;13497;48.322;16.204;2024-02-26T15:03:54;12.90;93.50
25640;DHT22;13497;48.322;16.204;2024-02-26T15:06:20;12.80;93.60
25640;DHT22;13497;48.322;16.204;2024-02-26T15:08:47;12.70;93.60
25640;DHT22;13497;48.322;16.204;2024-02-26T15:11:12;12.60;93.70
25640;DHT22;13497;48.322;16.204;2024-02-26T15:13:38;12.50;94.00
25640;DHT22;13497;48.322;16.204;2024-02-26T15:16:05;12.50;94.10
25640;DHT22;13497;48.322;16.204;2024-02-26T15:18:31;12.40;94.20
25640;DHT22;13497;48.322;16.204;2024-02-26T15:20:56;12.30;94.20
25640;DHT22;13497;48.322;16.204;2024-02-26T15:23:22;12.30;94.50
25640;DHT22;13497;48.322;16.204;2024-02-26T15:25:48;12.30;94.20
25640;DHT22;13497;48.322;16.204;2024-02-26T15:28:13;12.30;94.20
25640;DHT22;13497;48.322;16.204;2024-02-26T15:30:40;12.30;94.30
25640;DHT22;13497;48.322;16.204;2024-02-26T15:33:06;12.30;94.30
25640;DHT22;13497;48.322;16.204;2024-02-26T15:35:32;12.40;94.40